createdAt,value
2023-05-12T00:01:55.423Z,97241.40
2023-05-12T00:04:22.144Z,97239.60
2023-05-12T00:06:48.869Z,97238.20
2023-05-12T00:09:15.634Z,97235.80
2023-05-12T00:11:42.293Z,97239.40
2023-05-12T00:14:09.171Z,97240.20
2023-05-12T00:16:35.962Z,97241.80
2023-05-12T00:19:02.623Z,97237.20
2023-05-12T00:21:29.387Z,97240.80
2023-05-12T00:23:56.503Z,97239.20
2023-05-12T00:26:23.236Z,97240.40
2023-05-12T00:28:50.616Z,97239.00
2023-05-12T00:31:17.500Z,97240.40
2023-05-12T00:33:44.169Z,97241.20
2023-05-12T00:36:10.786Z,97239.00
2023-05-12T00:38:38.151Z,97237.40
2023-05-12T00:41:05.181Z,97236.00
2023-05-12T00:43:31.953Z,97227.60
2023-05-12T00:46:00.193Z,97233.40
2023-05-12T00:48:27.295Z,97231.00
2023-05-12T00:50:56.698Z,97231.20
2023-05-12T00:53:24.508Z,97229.60
2023-05-12T00:55:51.452Z,97229.20
2023-05-12T00:58:18.482Z,97231.00
2023-05-12T01:00:45.728Z,97234.40
2023-05-12T01:03:13.135Z,97229.80
2023-05-12T01:06:01.260Z,97230.00
2023-05-12T01:08:29.644Z,97228.00
2023-05-12T01:10:56.574Z,97227.80
2023-05-12T01:13:23.355Z,97226.60
2023-05-12T01:15:53.200Z,97225.00
2023-05-12T01:18:23.339Z,97227.40
2023-05-12T01:20:51.914Z,97223.00
2023-05-12T01:23:20.100Z,97224.20
2023-05-12T01:25:50.125Z,97222.20
2023-05-12T01:28:18.494Z,97224.20
2023-05-12T01:30:45.984Z,97224.60
2023-05-12T01:33:14.253Z,97228.00
2023-05-12T01:35:41.284Z,97229.00
2023-05-12T01:38:07.850Z,97225.60
2023-05-12T01:40:37.847Z,97230.00
2023-05-12T01:43:04.728Z,97229.40
2023-05-12T01:45:33.482Z,97230.60
2023-05-12T01:48:00.283Z,97229.60
2023-05-12T01:50:27.609Z,97231.40
2023-05-12T01:52:54.976Z,97235.20
2023-05-12T01:55:22.335Z,97234.20
2023-05-12T01:57:55.269Z,97236.20
2023-05-12T02:00:22.612Z,97240.00
2023-05-12T02:02:49.700Z,97237.40
2023-05-12T02:05:17.530Z,97233.80
2023-05-12T02:07:45.969Z,97237.80
2023-05-12T02:10:13.008Z,97236.40
2023-05-12T02:12:39.663Z,97235.00
2023-05-12T02:15:07.006Z,97247.40
2023-05-12T02:17:33.832Z,97240.80
2023-05-12T02:20:03.900Z,97241.40
2023-05-12T02:22:30.563Z,97237.40
2023-05-12T02:24:58.501Z,97242.80
2023-05-12T02:27:25.260Z,97240.40
2023-05-12T02:29:52.074Z,97231.60
2023-05-12T02:32:18.940Z,97234.00
2023-05-12T02:34:47.424Z,97233.80
2023-05-12T02:37:14.418Z,97233.60
2023-05-12T02:39:41.382Z,97233.40
2023-05-12T02:42:07.990Z,97232.80
2023-05-12T02:44:34.786Z,97226.80
2023-05-12T02:47:01.555Z,97230.60
2023-05-12T02:49:28.919Z,97229.20
2023-05-12T02:51:55.902Z,97230.80
2023-05-12T02:54:22.482Z,97229.20
2023-05-12T02:56:49.097Z,97230.20
2023-05-12T02:59:15.829Z,97228.00
2023-05-12T03:01:42.587Z,97229.00
2023-05-12T03:04:09.196Z,97229.60
2023-05-12T03:06:35.817Z,97233.40
2023-05-12T03:09:02.662Z,97235.20
2023-05-12T03:11:29.435Z,97231.20
2023-05-12T03:13:56.042Z,97231.60
2023-05-12T03:16:22.766Z,97229.40
2023-05-12T03:18:49.636Z,97231.60
2023-05-12T03:21:16.314Z,97231.00
2023-05-12T03:23:42.949Z,97228.40
2023-05-12T03:26:09.605Z,97228.20
2023-05-12T03:28:36.263Z,97227.00
2023-05-12T03:31:02.948Z,97229.80
2023-05-12T03:33:30.395Z,97229.20
2023-05-12T03:35:57.069Z,97233.60
2023-05-12T03:38:23.850Z,97233.00
2023-05-12T03:40:53.515Z,97234.00
2023-05-12T03:43:21.195Z,97235.00
2023-05-12T03:45:47.873Z,97229.00
2023-05-12T03:48:15.501Z,97230.60
2023-05-12T03:50:42.149Z,97234.00
2023-05-12T03:53:08.744Z,97234.60
2023-05-12T03:55:35.364Z,97232.80
2023-05-12T03:58:03.742Z,97231.20
2023-05-12T04:00:30.602Z,97233.40
2023-05-12T04:02:57.285Z,97231.40
2023-05-12T04:05:24.141Z,97228.00
2023-05-12T04:07:51.268Z,97232.60
2023-05-12T04:10:18.508Z,97237.00
2023-05-12T04:12:45.307Z,97238.00
2023-05-12T04:15:14.733Z,97236.80
2023-05-12T04:17:41.867Z,97235.00
2023-05-12T04:20:09.426Z,97243.00
2023-05-12T04:22:36.021Z,97248.60
2023-05-12T04:25:02.780Z,97244.20
2023-05-12T04:27:29.712Z,97247.40
2023-05-12T04:29:56.595Z,97252.00
2023-05-12T04:32:23.289Z,97255.60
2023-05-12T04:34:51.632Z,97258.00
2023-05-12T04:37:18.324Z,97255.40
2023-05-12T04:39:45.172Z,97258.40
2023-05-12T04:42:11.827Z,97262.00
2023-05-12T04:44:38.431Z,97262.00
2023-05-12T04:47:05.816Z,97262.00
2023-05-12T04:49:32.608Z,97262.80
2023-05-12T04:51:59.205Z,97263.60
2023-05-12T04:54:25.879Z,97262.60
2023-05-12T04:56:53.137Z,97265.00
2023-05-12T04:59:19.997Z,97269.20
2023-05-12T05:01:48.788Z,97274.40
2023-05-12T05:04:15.492Z,97273.20
2023-05-12T05:06:42.583Z,97267.60
2023-05-12T05:09:09.397Z,97268.80
2023-05-12T05:11:36.223Z,97268.00
2023-05-12T05:14:02.864Z,97264.40
2023-05-12T05:16:29.848Z,97268.00
2023-05-12T05:18:58.390Z,97264.80
2023-05-12T05:21:25.475Z,97261.20
2023-05-12T05:23:53.139Z,97270.40
2023-05-12T05:26:21.661Z,97272.20
2023-05-12T05:28:48.372Z,97271.60
2023-05-12T05:31:17.373Z,97273.20
2023-05-12T05:33:44.765Z,97273.00
2023-05-12T05:36:11.821Z,97277.20
2023-05-12T05:38:38.762Z,97280.00
2023-05-12T05:41:06.772Z,97278.40
2023-05-12T05:43:33.712Z,97284.20
2023-05-12T05:46:00.811Z,97284.20
2023-05-12T05:48:27.411Z,97285.60
2023-05-12T05:50:54.889Z,97289.00
2023-05-12T05:53:23.895Z,97283.40
2023-05-12T05:55:51.475Z,97279.80
2023-05-12T05:58:18.368Z,97282.00
2023-05-12T06:00:46.372Z,97282.20
2023-05-12T06:03:13.485Z,97286.20
2023-05-12T06:05:43.227Z,97285.80
2023-05-12T06:08:13.331Z,97289.80
2023-05-12T06:10:41.100Z,97283.00
2023-05-12T06:13:07.887Z,97294.00
2023-05-12T06:15:34.933Z,97293.80
2023-05-12T06:18:01.714Z,97292.80
2023-05-12T06:20:28.504Z,97293.00
2023-05-12T06:22:55.216Z,97295.20
2023-05-12T06:25:22.023Z,97292.40
2023-05-12T06:27:52.858Z,97295.60
2023-05-12T06:30:19.845Z,97297.60
2023-05-12T06:32:46.692Z,97301.00
2023-05-12T06:35:13.461Z,97301.80
2023-05-12T06:37:40.246Z,97300.20
2023-05-12T06:40:07.853Z,97302.40
2023-05-12T06:42:34.526Z,97303.20
2023-05-12T06:45:07.204Z,97301.20
2023-05-12T06:47:34.147Z,97306.00
2023-05-12T06:50:00.869Z,97308.20
2023-05-12T06:52:27.776Z,97309.20
2023-05-12T06:54:54.372Z,97303.80
2023-05-12T06:57:21.000Z,97310.20
2023-05-12T06:59:47.637Z,97308.20
2023-05-12T07:02:14.291Z,97317.00
2023-05-12T07:04:40.953Z,97311.00
2023-05-12T07:07:07.574Z,97314.40
2023-05-12T07:09:34.240Z,97314.80
2023-05-12T07:12:01.460Z,97309.80
2023-05-12T07:14:28.165Z,97316.40
2023-05-12T07:16:54.789Z,97320.40
2023-05-12T07:19:21.458Z,97318.40
2023-05-12T07:21:48.498Z,97321.60
2023-05-12T07:24:16.689Z,97321.60
2023-05-12T07:26:44.582Z,97322.20
2023-05-12T07:29:13.612Z,97326.60
2023-05-12T07:31:40.864Z,97325.20
2023-05-12T07:34:07.842Z,97327.20
2023-05-12T07:36:34.536Z,97323.40
2023-05-12T07:39:01.259Z,97325.80
2023-05-12T07:41:27.903Z,97326.60
2023-05-12T07:43:54.456Z,97324.80
2023-05-12T07:46:21.132Z,97323.60
2023-05-12T07:48:47.873Z,97329.00
2023-05-12T07:51:14.505Z,97324.60
2023-05-12T07:53:41.118Z,97326.20
2023-05-12T07:56:08.326Z,97330.60
2023-05-12T07:58:34.954Z,97334.40
2023-05-12T08:01:05.914Z,97339.00
2023-05-12T08:03:34.990Z,97344.60
2023-05-12T08:06:03.473Z,97338.80
2023-05-12T08:08:30.126Z,97332.80
2023-05-12T08:10:56.734Z,97337.40
2023-05-12T08:13:23.428Z,97336.60
2023-05-12T08:15:50.525Z,97336.80
2023-05-12T08:18:17.557Z,97335.80
2023-05-12T08:20:44.508Z,97337.40
2023-05-12T08:23:11.162Z,97334.00
2023-05-12T08:25:37.811Z,97334.00
2023-05-12T08:28:04.723Z,97336.60
2023-05-12T08:30:31.380Z,97336.20
2023-05-12T08:32:58.271Z,97338.00
2023-05-12T08:35:27.329Z,97335.60
2023-05-12T08:37:54.317Z,97342.20
2023-05-12T08:40:24.494Z,97342.00
2023-05-12T08:43:23.965Z,97339.00
2023-05-12T08:45:51.123Z,97341.80
2023-05-12T08:48:19.990Z,97342.00
2023-05-12T08:50:50.033Z,97342.60
2023-05-12T08:53:20.659Z,97345.80
2023-05-12T08:57:08.193Z,97345.20
2023-05-12T08:58:42.069Z,97351.00
2023-05-12T09:01:12.238Z,97348.80
2023-05-12T09:03:39.301Z,97345.40
2023-05-12T09:06:07.251Z,97352.20
2023-05-12T09:08:35.710Z,97349.80
2023-05-12T09:11:03.357Z,97346.00
2023-05-12T09:13:46.381Z,97350.00
2023-05-12T09:16:14.976Z,97355.00
2023-05-12T09:18:57.065Z,97355.40
2023-05-12T09:21:26.433Z,97355.20
2023-05-12T09:23:55.679Z,97357.20
2023-05-12T09:26:23.849Z,97352.80
2023-05-12T09:29:08.220Z,97355.00
2023-05-12T09:31:35.624Z,97353.80
2023-05-12T09:34:10.625Z,97352.80
2023-05-12T09:36:37.441Z,97352.20
2023-05-12T09:39:07.974Z,97358.60
2023-05-12T09:41:43.226Z,97358.80
2023-05-12T09:44:16.893Z,97360.00
2023-05-12T09:46:43.574Z,97361.40
2023-05-12T09:49:10.760Z,97356.80
2023-05-12T09:51:38.014Z,97363.40
2023-05-12T09:54:06.399Z,97361.20
2023-05-12T09:56:37.709Z,97352.80
2023-05-12T09:59:05.747Z,97356.00
2023-05-12T10:01:32.511Z,97352.40
2023-05-12T10:03:59.641Z,97350.80
2023-05-12T10:06:34.194Z,97348.40
2023-05-12T10:09:03.858Z,97346.40
2023-05-12T10:11:31.595Z,97354.00
2023-05-12T10:13:59.553Z,97348.00
2023-05-12T10:16:29.069Z,97345.20
2023-05-12T10:18:56.612Z,97355.20
2023-05-12T10:21:26.255Z,97359.80
2023-05-12T10:23:54.843Z,97360.00
2023-05-12T10:26:23.318Z,97363.00
2023-05-12T10:28:52.214Z,97362.60
2023-05-12T10:31:20.417Z,97361.00
2023-05-12T10:34:02.358Z,97365.80
2023-05-12T10:36:29.752Z,97371.00
2023-05-12T10:39:05.883Z,97367.80
2023-05-12T10:41:35.140Z,97366.80
2023-05-12T10:44:02.119Z,97370.80
2023-05-12T10:46:30.360Z,97373.80
2023-05-12T10:49:12.939Z,97379.00
2023-05-12T10:51:45.463Z,97373.20
2023-05-12T10:54:25.153Z,97380.60
2023-05-12T10:56:53.487Z,97379.40
2023-05-12T10:59:23.164Z,97379.80
2023-05-12T11:02:07.598Z,97382.00
2023-05-12T11:05:04.799Z,97381.00
2023-05-12T11:07:35.280Z,97379.00
2023-05-12T11:10:05.952Z,97380.20
2023-05-12T11:12:38.237Z,97383.00
2023-05-12T11:15:07.153Z,97382.60
2023-05-12T11:17:34.312Z,97383.40
2023-05-12T11:20:01.528Z,97379.40
2023-05-12T11:22:29.092Z,97383.20
2023-05-12T11:24:55.953Z,97387.00
2023-05-12T11:27:23.880Z,97394.60
2023-05-12T11:30:02.929Z,97393.00
2023-05-12T11:32:30.406Z,97394.80
2023-05-12T11:35:16.449Z,97391.60
2023-05-12T11:37:45.405Z,97391.80
2023-05-12T11:40:16.029Z,97389.20
2023-05-12T11:42:47.644Z,97393.60
2023-05-12T11:45:29.820Z,97391.40
2023-05-12T11:48:09.919Z,97399.00
2023-05-12T11:50:43.489Z,97395.80
2023-05-12T11:53:14.675Z,97398.60
2023-05-12T11:55:49.398Z,97400.60
2023-05-12T11:58:22.055Z,97399.60
2023-05-12T12:00:49.147Z,97403.60
2023-05-12T12:03:16.593Z,97407.20
2023-05-12T12:06:01.279Z,97402.20
2023-05-12T12:08:28.088Z,97413.40
2023-05-12T12:10:55.022Z,97406.80
2023-05-12T12:13:24.306Z,97410.40
2023-05-12T12:15:52.611Z,97406.40
2023-05-12T12:18:19.501Z,97416.20
2023-05-12T12:20:49.475Z,97414.40
2023-05-12T12:23:16.132Z,97414.40
2023-05-12T12:25:43.614Z,97416.80
2023-05-12T12:28:10.295Z,97418.40
2023-05-12T12:30:37.405Z,97416.20
2023-05-12T12:33:04.199Z,97414.40
2023-05-12T12:35:31.255Z,97409.20
2023-05-12T12:37:58.334Z,97409.20
2023-05-12T12:40:24.955Z,97413.80
2023-05-12T12:42:51.592Z,97412.40
2023-05-12T12:45:20.291Z,97410.60
2023-05-12T12:47:47.711Z,97416.00
2023-05-12T12:50:15.283Z,97412.20
2023-05-12T12:52:42.123Z,97410.80
2023-05-12T12:55:09.907Z,97416.40
2023-05-12T12:57:36.542Z,97417.60
2023-05-12T13:00:05.693Z,97416.60
2023-05-12T13:02:33.641Z,97422.20
2023-05-12T13:05:04.151Z,97417.60
2023-05-12T13:07:30.830Z,97421.40
2023-05-12T13:09:57.498Z,97419.40
2023-05-12T13:12:24.657Z,97422.20
2023-05-12T13:14:51.487Z,97425.80
2023-05-12T13:17:18.106Z,97421.60
2023-05-12T13:19:44.794Z,97425.60
2023-05-12T13:22:11.415Z,97422.40
2023-05-12T13:24:38.093Z,97423.20
2023-05-12T13:27:08.256Z,97428.60
2023-05-12T13:29:36.136Z,97427.60
2023-05-12T13:32:03.719Z,97423.40
2023-05-12T13:34:30.357Z,97425.60
2023-05-12T13:36:57.030Z,97422.20
2023-05-12T13:39:23.854Z,97422.80
2023-05-12T13:41:50.844Z,97422.60
2023-05-12T13:44:17.494Z,97421.60
2023-05-12T13:46:44.247Z,97426.20
2023-05-12T13:49:10.963Z,97422.00
2023-05-12T13:51:38.304Z,97428.40
2023-05-12T13:54:04.969Z,97418.00
2023-05-12T13:56:31.906Z,97418.40
2023-05-12T13:58:58.545Z,97418.60
2023-05-12T14:01:25.615Z,97423.80
2023-05-12T14:03:52.313Z,97425.20
2023-05-12T14:06:18.941Z,97432.60
2023-05-12T14:08:45.792Z,97436.80
2023-05-12T14:11:12.466Z,97431.80
2023-05-12T14:13:39.321Z,97437.00
2023-05-12T14:16:06.964Z,97442.00
2023-05-12T14:18:33.873Z,97442.60
2023-05-12T14:21:01.649Z,97441.60
2023-05-12T14:23:28.418Z,97439.00
2023-05-12T14:25:55.576Z,97442.40
2023-05-12T14:28:23.500Z,97443.80
2023-05-12T14:30:50.615Z,97443.40
2023-05-12T14:33:17.379Z,97441.60
2023-05-12T14:35:52.829Z,97445.80
2023-05-12T14:38:26.758Z,97445.00
2023-05-12T14:40:53.381Z,97446.00
2023-05-12T14:43:20.047Z,97449.80
2023-05-12T14:45:54.861Z,97453.00
2023-05-12T14:48:23.549Z,97448.60
2023-05-12T14:50:57.186Z,97459.00
2023-05-12T14:53:24.398Z,97459.00
2023-05-12T14:55:52.198Z,97455.80
2023-05-12T14:58:21.512Z,97463.60
2023-05-12T15:00:50.723Z,97461.80
2023-05-12T15:03:17.736Z,97469.60
2023-05-12T15:08:15.890Z,97466.80
2023-05-12T15:10:44.287Z,97469.20
2023-05-12T15:13:12.681Z,97473.60
2023-05-12T15:15:39.404Z,97465.60
2023-05-12T15:18:07.406Z,97472.20
2023-05-12T15:20:34.649Z,97475.80
2023-05-12T15:23:01.415Z,97472.40
2023-05-12T15:25:28.693Z,97472.40
2023-05-12T15:27:55.662Z,97471.00
2023-05-12T15:30:22.487Z,97468.60
2023-05-12T15:32:49.271Z,97471.80
2023-05-12T15:35:16.202Z,97468.60
2023-05-12T15:37:42.873Z,97470.60
2023-05-12T15:40:10.676Z,97465.00
2023-05-12T15:42:37.307Z,97468.80
2023-05-12T15:45:04.451Z,97466.20
2023-05-12T15:47:31.182Z,97461.20
2023-05-12T15:49:57.917Z,97466.20
2023-05-12T15:52:24.900Z,97460.60
2023-05-12T15:54:51.517Z,97469.80
2023-05-12T15:57:18.335Z,97474.00
2023-05-12T15:59:45.932Z,97471.20
2023-05-12T16:02:12.648Z,97474.80
2023-05-12T16:04:39.913Z,97474.00
2023-05-12T16:07:06.758Z,97476.00
2023-05-12T16:09:33.373Z,97475.80
2023-05-12T16:12:00.201Z,97471.00
2023-05-12T16:14:26.902Z,97473.00
2023-05-12T16:16:53.630Z,97472.00
2023-05-12T16:19:20.485Z,97470.00
2023-05-12T16:21:47.098Z,97469.40
2023-05-12T16:24:13.805Z,97477.00
2023-05-12T16:26:41.262Z,97478.00
2023-05-12T16:29:07.997Z,97474.40
2023-05-12T16:31:34.976Z,97469.40
2023-05-12T16:34:03.380Z,97468.20
2023-05-12T16:36:31.874Z,97474.80
2023-05-12T16:38:59.505Z,97474.40
2023-05-12T16:41:28.569Z,97474.40
2023-05-12T16:43:55.437Z,97474.80
2023-05-12T16:46:22.282Z,97483.80
2023-05-12T16:48:49.106Z,97485.40
2023-05-12T16:51:15.783Z,97485.00
2023-05-12T16:53:42.707Z,97485.40
2023-05-12T16:56:09.674Z,97487.00
2023-05-12T16:58:36.380Z,97485.20
2023-05-12T17:01:03.532Z,97484.60
2023-05-12T17:03:31.659Z,97491.60
2023-05-12T17:05:58.530Z,97483.60
2023-05-12T17:08:25.414Z,97492.40
2023-05-12T17:10:52.025Z,97488.40
2023-05-12T17:13:18.752Z,97492.40
2023-05-12T17:15:45.786Z,97491.00
2023-05-12T17:18:13.072Z,97495.20
2023-05-12T17:20:41.045Z,97491.40
2023-05-12T17:23:08.318Z,97496.60
2023-05-12T17:25:36.616Z,97493.80
2023-05-12T17:28:04.455Z,97487.60
2023-05-12T17:30:31.294Z,97488.40
2023-05-12T17:32:58.757Z,97488.80
2023-05-12T17:35:25.699Z,97491.80
2023-05-12T17:37:55.395Z,97489.40
2023-05-12T17:40:23.004Z,97494.00
2023-05-12T17:42:50.336Z,97494.00
2023-05-12T17:45:17.736Z,97496.20
2023-05-12T17:47:45.681Z,97494.00
2023-05-12T17:50:14.724Z,97502.40
2023-05-12T17:52:43.449Z,97504.60
2023-05-12T17:55:11.075Z,97504.80
2023-05-12T17:57:38.128Z,97507.00
2023-05-12T18:00:10.488Z,97515.00
2023-05-12T18:02:44.540Z,97517.00
2023-05-12T18:05:11.424Z,97515.40
2023-05-12T18:07:38.191Z,97520.00
2023-05-12T18:10:09.887Z,97515.80
2023-05-12T18:12:37.831Z,97515.20
2023-05-12T18:15:06.291Z,97516.20
2023-05-12T18:17:33.078Z,97523.00
2023-05-12T18:20:00.255Z,97519.60
2023-05-12T18:22:27.244Z,97520.20
2023-05-12T18:24:54.034Z,97514.20
2023-05-12T18:27:20.859Z,97520.40
2023-05-12T18:29:47.459Z,97511.60
2023-05-12T18:32:14.159Z,97517.20
2023-05-12T18:34:43.968Z,97526.60
2023-05-12T18:37:15.580Z,97527.80
2023-05-12T18:39:43.232Z,97533.60
2023-05-12T18:42:11.249Z,97529.00
2023-05-12T18:44:41.630Z,97529.00
2023-05-12T18:47:08.874Z,97531.00
2023-05-12T18:49:36.755Z,97530.00
2023-05-12T18:52:03.633Z,97538.60
2023-05-12T18:54:30.617Z,97540.20
2023-05-12T18:56:57.330Z,97536.20
2023-05-12T18:59:24.040Z,97538.40
2023-05-12T19:01:50.840Z,97539.40
2023-05-12T19:04:17.535Z,97538.40
2023-05-12T19:06:44.226Z,97532.20
2023-05-12T19:09:10.977Z,97541.00
2023-05-12T19:11:38.804Z,97541.40
2023-05-12T19:14:05.869Z,97543.40
2023-05-12T19:16:34.836Z,97544.60
2023-05-12T19:19:03.044Z,97543.40
2023-05-12T19:21:30.898Z,97545.00
2023-05-12T19:23:57.636Z,97547.00
2023-05-12T19:26:24.249Z,97549.40
2023-05-12T19:28:50.821Z,97547.80
2023-05-12T19:31:17.538Z,97557.00
2023-05-12T19:33:44.287Z,97555.20
2023-05-12T19:36:11.657Z,97560.00
2023-05-12T19:38:40.044Z,97560.00
2023-05-12T19:41:08.032Z,97556.60
2023-05-12T19:43:34.630Z,97562.00
2023-05-12T19:46:01.526Z,97566.80
2023-05-12T19:48:28.379Z,97558.20
2023-05-12T19:50:55.046Z,97562.60
2023-05-12T19:53:21.605Z,97566.60
2023-05-12T19:55:48.208Z,97568.40
2023-05-12T19:58:14.755Z,97567.40
2023-05-12T20:00:41.371Z,97570.00
2023-05-12T20:03:08.260Z,97566.80
2023-05-12T20:05:36.840Z,97569.00
2023-05-12T20:08:03.730Z,97566.40
2023-05-12T20:10:30.352Z,97567.40
2023-05-12T20:12:57.158Z,97570.60
2023-05-12T20:15:24.118Z,97572.60
2023-05-12T20:17:50.816Z,97568.20
2023-05-12T20:20:17.587Z,97568.00
2023-05-12T20:22:44.535Z,97565.00
2023-05-12T20:25:14.338Z,97563.40
2023-05-12T20:27:41.688Z,97567.40
2023-05-12T20:30:10.059Z,97566.60
2023-05-12T20:32:36.724Z,97571.20
2023-05-12T20:35:04.770Z,97564.00
2023-05-12T20:37:31.720Z,97562.00
2023-05-12T20:39:58.373Z,97558.60
2023-05-12T20:42:25.120Z,97565.00
2023-05-12T20:44:51.721Z,97566.60
2023-05-12T20:47:18.682Z,97562.80
2023-05-12T20:49:45.434Z,97562.20
2023-05-12T20:52:12.083Z,97563.60
2023-05-12T20:54:38.718Z,97570.00
2023-05-12T20:57:05.624Z,97571.60
2023-05-12T20:59:32.276Z,97566.80
2023-05-12T21:01:59.038Z,97567.40
2023-05-12T21:04:26.004Z,97569.40
2023-05-12T21:06:53.632Z,97569.00
2023-05-12T21:09:20.766Z,97572.80
2023-05-12T21:11:47.614Z,97570.00
2023-05-12T21:14:14.337Z,97568.40
2023-05-12T21:16:41.102Z,97570.40
2023-05-12T21:19:07.802Z,97569.00
2023-05-12T21:21:34.594Z,97568.20
2023-05-12T21:24:01.262Z,97568.00
2023-05-12T21:26:27.901Z,97567.60
2023-05-12T21:28:54.561Z,97573.20
2023-05-12T21:31:21.175Z,97576.00
2023-05-12T21:33:48.192Z,97570.80
2023-05-12T21:36:14.916Z,97576.80
2023-05-12T21:38:41.606Z,97575.00
2023-05-12T21:41:08.228Z,97573.60
2023-05-12T21:43:34.812Z,97570.00
2023-05-12T21:46:03.848Z,97572.00
2023-05-12T21:48:32.135Z,97573.20
2023-05-12T21:51:03.433Z,97576.40
2023-05-12T21:53:30.574Z,97579.40
2023-05-12T21:55:57.178Z,97580.80
2023-05-12T21:58:23.960Z,97580.20
2023-05-12T22:00:53.682Z,97579.60
2023-05-12T22:03:21.900Z,97574.20
2023-05-12T22:05:48.950Z,97572.60
2023-05-12T22:08:16.345Z,97574.60
2023-05-12T22:10:43.323Z,97569.80
2023-05-12T22:13:10.505Z,97564.40
2023-05-12T22:15:37.194Z,97562.40
2023-05-12T22:18:04.054Z,97567.60
2023-05-12T22:20:31.075Z,97566.20
2023-05-12T22:22:57.695Z,97564.40
2023-05-12T22:25:24.313Z,97563.60
2023-05-12T22:27:50.935Z,97564.80
2023-05-12T22:30:18.930Z,97565.00
2023-05-12T22:32:46.005Z,97563.20
2023-05-12T22:35:12.722Z,97565.00
2023-05-12T22:37:39.413Z,97561.20
2023-05-12T22:40:07.581Z,97561.00
2023-05-12T22:42:34.166Z,97567.20
2023-05-12T22:45:04.616Z,97565.40
2023-05-12T22:47:32.427Z,97562.20
2023-05-12T22:50:00.091Z,97563.60
2023-05-12T22:52:27.512Z,97566.40
2023-05-12T22:54:55.408Z,97565.60
2023-05-12T22:57:22.751Z,97564.00
2023-05-12T22:59:49.633Z,97563.80
2023-05-12T23:02:16.519Z,97566.20
2023-05-12T23:04:43.844Z,97563.60
2023-05-12T23:07:10.916Z,97565.60
2023-05-12T23:09:37.644Z,97560.40
2023-05-12T23:12:05.218Z,97564.00
2023-05-12T23:14:31.790Z,97562.80
2023-05-12T23:16:58.543Z,97560.80
2023-05-12T23:19:25.309Z,97554.80
2023-05-12T23:21:51.916Z,97551.60
2023-05-12T23:24:18.911Z,97553.00
2023-05-12T23:26:45.741Z,97547.80
2023-05-12T23:29:12.347Z,97544.40
2023-05-12T23:31:38.934Z,97555.20
2023-05-12T23:34:05.927Z,97550.40
2023-05-12T23:36:32.705Z,97548.60
2023-05-12T23:38:59.391Z,97546.00
2023-05-12T23:41:26.181Z,97550.20
2023-05-12T23:43:52.805Z,97553.00
2023-05-12T23:46:19.457Z,97552.60
2023-05-12T23:48:46.109Z,97554.60
2023-05-12T23:51:12.692Z,97551.20
2023-05-12T23:53:39.292Z,97553.60
2023-05-12T23:56:06.927Z,97555.20
2023-05-12T23:58:34.379Z,97548.60
